Time;durP1;ratioP1;P1;durP2;ratioP2;P2;SDS_P1;SDS_P2;PMS_P1;PMS_P2;Temp;Humidity;BMP_temperature;BMP_pressure;BME280_temperature;BME280_humidity;BME280_pressure;Samples;Min_cycle;Max_cycle;Signal;HPM_P1;HPM_P2
2021/12/08 00:00:43;;;;;;;;;3.00;0.00;;;;;11.19;74.89;99274.13;5106027;27;62095;-74
2021/12/08 00:03:11;;;;;;;;;0.50;0.00;;;;;11.15;74.42;99287.16;5105125;27;61918;-74
2021/12/08 00:05:38;;;;;;;;;1.50;0.00;;;;;11.14;75.71;99281.03;5105883;27;62099;-73
2021/12/08 00:08:06;;;;;;;;;0.00;0.00;;;;;11.12;74.63;99285.38;5105436;27;61989;-73
2021/12/08 00:13:04;;;;;;;;;1.75;0.00;;;;;11.11;74.47;99266.97;5104595;27;62317;-73
2021/12/08 00:15:36;;;;;;;;;0.00;0.00;;;;;11.16;74.37;99260.94;5105516;27;61946;-73
2021/12/08 00:18:05;;;;;;;;;1.75;0.50;;;;;11.05;75.07;99259.84;5105354;27;62061;-73
2021/12/08 00:20:32;;;;;;;;;0.50;0.50;;;;;11.09;74.90;99268.69;5104323;27;61826;-73
2021/12/08 00:22:59;;;;;;;;;1.00;0.00;;;;;11.11;75.47;99270.47;5103049;27;63780;-74
2021/12/08 00:25:25;;;;;;;;;0.00;0.00;;;;;11.14;75.25;99275.78;5103945;27;61885;-74
2021/12/08 00:27:51;;;;;;;;;1.00;0.00;;;;;11.11;75.19;99267.84;5104927;27;61743;-73
2021/12/08 00:30:17;;;;;;;;;3.50;1.00;;;;;11.13;75.58;99262.63;5104124;27;62185;-74
2021/12/08 00:32:47;;;;;;;;;0.00;0.00;;;;;11.11;75.13;99262.59;5103460;27;64979;-73
2021/12/08 00:35:12;;;;;;;;;2.00;0.00;;;;;11.09;75.46;99260.81;5105100;27;61941;-74
2021/12/08 00:37:38;;;;;;;;;4.00;0.50;;;;;11.11;75.77;99264.34;5104706;27;61954;-74
2021/12/08 00:40:08;;;;;;;;;1.50;0.00;;;;;11.06;74.67;99274.75;5120625;27;62087;-73
2021/12/08 00:42:34;;;;;;;;;1.00;0.00;;;;;11.01;75.65;99277.31;5103077;27;63669;-74
2021/12/08 00:44:59;;;;;;;;;0.00;0.00;;;;;11.09;75.41;99287.94;5104780;27;61822;-73
2021/12/08 00:47:26;;;;;;;;;1.25;0.25;;;;;11.03;75.25;99303.56;5104550;27;61779;-74
2021/12/08 00:49:51;;;;;;;;;1.25;0.00;;;;;11.04;75.63;99300.97;5104730;27;61953;-73
2021/12/08 00:52:17;;;;;;;;;4.00;0.00;;;;;11.06;75.15;99301.03;5103894;27;61783;-74
2021/12/08 00:54:42;;;;;;;;;1.00;0.00;;;;;11.08;74.97;99311.56;5104915;27;61745;-74
2021/12/08 00:57:08;;;;;;;;;1.00;1.00;;;;;11.07;74.54;99310.66;5104645;27;61875;-73
2021/12/08 00:59:34;;;;;;;;;1.00;1.00;;;;;11.19;74.26;99315.25;5104653;27;62039;-73
2021/12/08 01:02:02;;;;;;;;;0.00;0.00;;;;;11.22;74.25;99317.94;5102867;27;63847;-73
2021/12/08 01:04:33;;;;;;;;;2.00;0.50;;;;;11.24;74.10;99309.22;5103187;27;61782;-74
2021/12/08 01:07:00;;;;;;;;;0.00;0.00;;;;;11.20;74.46;99303.88;5102955;27;61807;-73
2021/12/08 01:09:25;;;;;;;;;0.25;0.25;;;;;11.12;73.99;99306.38;5104433;27;62228;-73
2021/12/08 01:11:51;;;;;;;;;5.00;1.00;;;;;11.03;74.18;99308.81;5103784;27;63181;-73
2021/12/08 01:14:17;;;;;;;;;0.75;0.00;;;;;10.94;73.80;99304.28;5104114;27;61896;-73
2021/12/08 01:16:51;;;;;;;;;1.00;0.25;;;;;10.80;73.77;99301.41;5104372;27;62235;-73
2021/12/08 01:19:17;;;;;;;;;1.00;0.00;;;;;10.89;74.27;99302.44;5103405;27;62272;-73
2021/12/08 01:21:43;;;;;;;;;0.00;0.00;;;;;10.83;73.90;99305.84;5103556;27;61854;-73
2021/12/08 01:24:09;;;;;;;;;5.00;0.00;;;;;10.84;74.14;99299.75;5104154;27;61924;-73
2021/12/08 01:26:34;;;;;;;;;2.00;0.00;;;;;10.84;74.26;99282.25;5104753;27;62036;-73
2021/12/08 01:29:00;;;;;;;;;0.00;0.00;;;;;10.73;73.41;99278.53;5104148;27;61950;-73
2021/12/08 01:31:26;;;;;;;;;0.50;0.00;;;;;10.59;73.38;99264.25;5102198;27;64673;-73
2021/12/08 01:33:51;;;;;;;;;3.50;0.00;;;;;10.63;73.88;99258.22;5104539;27;62129;-73
2021/12/08 01:36:18;;;;;;;;;0.00;0.00;;;;;10.67;73.48;99252.19;5103569;27;61944;-73
2021/12/08 01:38:45;;;;;;;;;2.50;0.00;;;;;10.63;73.73;99264.34;5103838;27;62032;-73
2021/12/08 01:41:10;;;;;;;;;0.00;0.00;;;;;10.62;73.76;99269.56;5102143;27;63730;-73
2021/12/08 01:46:28;;;;;;;;;1.00;0.00;;;;;10.57;73.21;99292.19;5080776;28;61925;-73
2021/12/08 01:48:54;;;;;;;;;1.00;0.00;;;;;10.56;73.60;99293.94;5080872;28;62842;-73
2021/12/08 01:51:20;;;;;;;;;0.25;0.00;;;;;10.58;73.66;99310.59;5063007;28;63477;-73
2021/12/08 01:53:49;;;;;;;;;1.00;0.00;;;;;10.58;73.27;99320.19;5081332;28;61820;-73
2021/12/08 01:56:15;;;;;;;;;1.25;0.00;;;;;10.51;73.00;99327.06;5080946;28;62052;-73
2021/12/08 01:58:41;;;;;;;;;0.00;0.00;;;;;10.48;73.33;99324.38;5080252;28;62044;-73
2021/12/08 02:01:12;;;;;;;;;0.00;0.00;;;;;10.55;73.47;99328.03;5062469;28;63683;-73
2021/12/08 02:03:39;;;;;;;;;0.25;0.00;;;;;10.53;74.20;99329.72;5080769;28;62289;-73
2021/12/08 02:06:07;;;;;;;;;0.00;0.00;;;;;10.55;73.85;99328.03;5063463;28;62091;-73
2021/12/08 02:08:33;;;;;;;;;0.00;0.00;;;;;10.52;74.00;99328.84;5080832;28;61890;-73
2021/12/08 02:11:00;;;;;;;;;1.50;0.00;;;;;10.47;74.04;99322.59;5079659;28;61932;-73
2021/12/08 02:13:28;;;;;;;;;0.50;0.00;;;;;10.46;73.97;99340.94;5080190;28;61783;-73
2021/12/08 02:15:53;;;;;;;;;1.00;0.00;;;;;10.50;74.01;99350.66;5080734;28;61885;-73
2021/12/08 02:18:19;;;;;;;;;0.00;0.00;;;;;10.48;74.57;99357.59;5080852;28;62355;-73
2021/12/08 02:20:48;;;;;;;;;0.00;0.00;;;;;10.47;74.09;99358.44;5079115;28;62025;-73
2021/12/08 02:23:14;;;;;;;;;1.00;1.00;;;;;10.40;74.35;99367.91;5089899;27;61826;-73
2021/12/08 02:25:40;;;;;;;;;1.00;0.00;;;;;10.31;74.31;99362.47;5102052;27;61957;-73
2021/12/08 02:28:10;;;;;;;;;0.00;0.00;;;;;10.31;74.79;99355.50;5118780;27;62246;-73
2021/12/08 02:30:43;;;;;;;;;0.25;0.00;;;;;10.24;75.09;99366.66;5101357;27;63788;-73
2021/12/08 02:47:10;;;;;;;;;1.50;0.00;;;;;10.19;75.41;99363.03;5080276;28;61853;-73
2021/12/08 02:49:38;;;;;;;;;1.00;0.00;;;;;10.10;75.21;99362.84;5079599;28;61796;-73
2021/12/08 02:52:06;;;;;;;;;0.25;0.25;;;;;10.16;75.67;99361.25;5079603;28;63819;-73
2021/12/08 02:54:43;;;;;;;;;3.00;0.00;;;;;10.12;75.54;99364.63;5079930;28;61968;-73
2021/12/08 02:57:10;;;;;;;;;1.75;0.75;;;;;10.11;75.71;99367.22;5080063;28;62124;-73
2021/12/08 02:59:37;;;;;;;;;0.50;0.50;;;;;10.12;75.95;99366.38;5062849;28;62065;-73
2021/12/08 03:02:03;;;;;;;;;0.00;0.00;;;;;10.13;75.15;99360.28;5079588;28;61923;-73
2021/12/08 03:04:28;;;;;;;;;2.00;0.00;;;;;10.05;75.18;99352.25;5079584;28;61962;-73
2021/12/08 03:06:54;;;;;;;;;0.25;0.00;;;;;10.03;75.36;99349.59;5079739;28;61893;-73
2021/12/08 03:09:20;;;;;;;;;1.00;0.00;;;;;10.04;75.06;99348.72;5079695;28;61862;-73
2021/12/08 03:11:51;;;;;;;;;0.75;0.00;;;;;10.04;74.23;99338.22;5079782;28;63456;-73
2021/12/08 03:14:18;;;;;;;;;1.00;0.00;;;;;10.12;74.41;99341.03;5084377;28;61735;-73
2021/12/08 03:16:52;;;;;;;;;0.00;0.00;;;;;10.02;74.13;99326.81;5084457;27;61912;-73
2021/12/08 03:19:21;;;;;;;;;1.00;0.00;;;;;10.03;73.94;99333.84;5085734;27;61802;-73
2021/12/08 03:21:47;;;;;;;;;2.00;0.00;;;;;10.07;73.98;99341.78;5085243;27;62608;-73
2021/12/08 03:26:53;;;;;;;;;0.00;0.00;;;;;9.96;73.68;99338.91;5085737;27;61944;-73
2021/12/08 03:31:54;;;;;;;;;0.00;0.00;;;;;9.98;74.04;99319.78;5084760;27;61802;-73
2021/12/08 03:34:21;;;;;;;;;1.00;1.00;;;;;9.97;74.09;99315.34;5101344;27;61938;-73
2021/12/08 03:36:47;;;;;;;;;2.25;0.00;;;;;9.93;73.86;99304.78;5085718;27;61810;-73
2021/12/08 03:39:13;;;;;;;;;1.00;0.00;;;;;9.95;73.55;99308.31;5085327;27;61964;-73
2021/12/08 03:41:39;;;;;;;;;0.00;0.00;;;;;9.99;73.92;99308.41;5094229;27;62004;-73
2021/12/08 03:44:05;;;;;;;;;1.25;0.00;;;;;9.98;73.98;99309.28;5104109;27;61802;-73
2021/12/08 03:46:38;;;;;;;;;0.00;0.00;;;;;10.00;74.22;99306.69;5105936;27;61691;-73
2021/12/08 03:49:06;;;;;;;;;5.00;0.00;;;;;10.01;73.63;99319.81;5105816;27;61887;-73
2021/12/08 03:51:32;;;;;;;;;1.50;1.00;;;;;9.99;74.19;99318.91;5103902;27;63816;-73
2021/12/08 03:53:57;;;;;;;;;0.00;0.00;;;;;9.97;74.38;99325.84;5104548;27;61779;-74
2021/12/08 03:56:23;;;;;;;;;1.00;0.00;;;;;9.99;73.89;99321.53;5106022;27;61888;-73
2021/12/08 03:58:50;;;;;;;;;1.00;0.00;;;;;9.97;74.28;99320.59;5105275;27;62129;-73
2021/12/08 04:01:16;;;;;;;;;0.00;0.00;;;;;9.94;74.81;99319.63;5104706;27;62850;-73
2021/12/08 04:03:49;;;;;;;;;0.75;0.00;;;;;9.88;74.32;99324.75;5105921;27;62094;-73
2021/12/08 04:06:27;;;;;;;;;0.00;0.00;;;;;9.80;74.49;99321.94;5105890;27;61991;-73
2021/12/08 04:08:56;;;;;;;;;1.00;0.00;;;;;9.87;74.72;99312.50;5105172;27;61990;-74
2021/12/08 04:11:23;;;;;;;;;0.00;0.00;;;;;9.86;74.46;99313.34;5103784;27;63723;-73
2021/12/08 04:13:57;;;;;;;;;0.50;0.00;;;;;9.89;74.49;99319.53;5105305;27;61755;-73
2021/12/08 04:16:30;;;;;;;;;2.00;0.75;;;;;9.86;73.97;99319.47;5105237;27;61782;-73
2021/12/08 04:18:57;;;;;;;;;0.00;0.00;;;;;9.88;74.42;99309.91;5103971;27;61920;-73
2021/12/08 04:21:24;;;;;;;;;1.75;0.00;;;;;9.93;75.30;99321.38;5104811;27;62003;-73
2021/12/08 04:23:50;;;;;;;;;0.25;0.00;;;;;9.90;74.08;99312.59;5104733;27;61805;-73
2021/12/08 04:26:27;;;;;;;;;0.00;0.00;;;;;9.88;74.65;99312.53;5105424;27;62245;-74
2021/12/08 04:28:54;;;;;;;;;1.00;0.00;;;;;9.88;74.81;99316.91;5103448;27;62804;-73
2021/12/08 04:31:25;;;;;;;;;0.00;0.00;;;;;9.87;75.09;99325.59;5104313;27;63252;-73
2021/12/08 04:33:55;;;;;;;;;1.00;0.00;;;;;9.82;74.46;99321.13;5105386;27;61929;-73
2021/12/08 04:36:23;;;;;;;;;0.00;0.00;;;;;9.85;74.83;99319.44;5103884;27;61947;-73
2021/12/08 04:38:53;;;;;;;;;1.00;0.00;;;;;9.79;74.73;99318.44;5104817;27;62298;-73
2021/12/08 04:41:30;;;;;;;;;0.00;0.00;;;;;9.85;74.74;99319.44;5104391;27;63624;-73
2021/12/08 05:05:59;;;;;;;;;1.00;0.00;;;;;9.76;75.15;99347.19;5104379;27;62133;-73
2021/12/08 05:08:22;;;;;;;;;0.00;0.00;;;;;9.72;75.48;99339.22;5104218;27;62103;-73
2021/12/08 05:10:49;;;;;;;;;2.00;0.25;;;;;9.72;74.63;99349.69;5104557;27;62064;-73
2021/12/08 05:13:17;;;;;;;;;0.00;0.00;;;;;9.71;75.32;99358.41;5103039;27;63293;-74
2021/12/08 05:15:49;;;;;;;;;2.50;1.50;;;;;9.70;75.00;99352.28;5103108;27;61899;-73
2021/12/08 05:18:21;;;;;;;;;0.50;0.00;;;;;9.70;75.08;99351.41;5102994;27;61739;-73
2021/12/08 05:20:56;;;;;;;;;0.00;0.00;;;;;9.71;74.44;99354.06;5104670;27;61951;-73
2021/12/08 05:23:31;;;;;;;;;0.50;0.00;;;;;9.73;74.89;99354.09;5103984;27;63035;-73
2021/12/08 05:26:07;;;;;;;;;3.25;0.00;;;;;9.71;74.91;99367.16;5104593;27;61797;-73
2021/12/08 05:28:33;;;;;;;;;0.75;0.75;;;;;9.69;74.63;99367.97;5101944;27;61811;-73
2021/12/08 05:31:12;;;;;;;;;2.75;0.50;;;;;9.66;74.01;99365.25;5104716;27;62108;-73
2021/12/08 05:33:40;;;;;;;;;0.75;0.00;;;;;9.68;74.73;99371.44;5103822;27;61905;-73
2021/12/08 05:36:08;;;;;;;;;1.00;1.00;;;;;9.67;74.67;99370.53;5104258;27;61755;-73
2021/12/08 05:38:34;;;;;;;;;6.00;0.25;;;;;9.64;74.82;99375.72;5103822;27;62039;-73
2021/12/08 05:41:09;;;;;;;;;1.00;0.00;;;;;9.67;74.59;99377.53;5103862;27;61728;-73
2021/12/08 05:43:35;;;;;;;;;0.25;0.00;;;;;9.66;75.20;99375.75;5102775;27;61900;-73
2021/12/08 05:46:01;;;;;;;;;1.00;1.00;;;;;9.67;74.84;99372.28;5102836;27;62183;-73
2021/12/08 05:48:30;;;;;;;;;0.75;0.00;;;;;9.61;74.95;99371.28;5103692;27;61756;-73
2021/12/08 05:51:01;;;;;;;;;1.25;0.75;;;;;9.63;75.08;99389.66;5103983;27;61702;-73
2021/12/08 05:53:27;;;;;;;;;0.25;0.25;;;;;9.60;75.03;99395.72;5101979;27;63802;-73
2021/12/08 05:55:54;;;;;;;;;1.50;0.75;;;;;9.59;75.03;99393.91;5104064;27;61805;-73
2021/12/08 05:58:22;;;;;;;;;2.00;0.50;;;;;9.55;75.33;99385.94;5102921;27;62255;-73
2021/12/08 06:01:04;;;;;;;;;1.75;1.25;;;;;9.50;75.48;99377.97;5103847;27;61896;-73
2021/12/08 06:03:31;;;;;;;;;1.00;0.00;;;;;9.42;75.84;99383.00;5103149;27;64797;-73
2021/12/08 06:05:57;;;;;;;;;0.50;0.00;;;;;9.41;75.87;99385.59;5103968;27;61881;-73
2021/12/08 06:08:24;;;;;;;;;0.50;0.50;;;;;9.40;76.24;99392.59;5103638;27;62265;-76
2021/12/08 06:10:50;;;;;;;;;1.50;0.75;;;;;9.40;76.07;99383.81;5103328;27;62000;-76
2021/12/08 06:13:18;;;;;;;;;1.00;0.00;;;;;9.40;75.95;99378.56;5102011;27;62062;-76
2021/12/08 06:15:46;;;;;;;;;1.25;0.75;;;;;9.30;75.85;99384.44;5102015;27;61785;-78
2021/12/08 06:18:12;;;;;;;;;1.25;1.25;;;;;9.35;75.99;99388.06;5102608;27;61954;-78
2021/12/08 06:20:39;;;;;;;;;6.00;1.00;;;;;9.36;76.05;99387.19;5103469;27;62049;-77
2021/12/08 06:23:07;;;;;;;;;6.00;2.00;;;;;9.34;76.19;99381.94;5102887;27;63090;-77
2021/12/08 06:25:35;;;;;;;;;4.75;1.00;;;;;9.31;76.13;99381.84;5101174;27;62033;-77
2021/12/08 06:28:03;;;;;;;;;0.25;0.00;;;;;9.28;76.07;99384.38;5103218;27;61974;-76
2021/12/08 06:30:36;;;;;;;;;4.00;1.00;;;;;9.27;75.72;99385.22;5103541;27;62244;-75
2021/12/08 06:33:03;;;;;;;;;1.25;1.00;;;;;9.27;75.93;99397.44;5102221;27;62021;-75
2021/12/08 06:35:34;;;;;;;;;2.00;1.00;;;;;9.28;76.01;99402.72;5103432;27;62032;-76
2021/12/08 06:38:00;;;;;;;;;0.25;0.00;;;;;9.24;75.79;99393.00;5101792;27;62064;-76
2021/12/08 06:40:34;;;;;;;;;4.00;0.00;;;;;9.21;75.79;99412.13;5090427;27;62432;-76
2021/12/08 06:43:03;;;;;;;;;5.75;1.00;;;;;9.23;76.32;99401.69;5088972;27;62072;-76
2021/12/08 06:45:33;;;;;;;;;3.75;1.25;;;;;9.24;76.22;99399.97;5090015;27;61898;-76
2021/12/08 06:48:02;;;;;;;;;0.75;0.75;;;;;9.18;76.47;99398.94;5101960;27;61797;-76
2021/12/08 06:50:59;;;;;;;;;1.00;1.00;;;;;9.23;76.29;99398.19;5101429;27;62127;-76
2021/12/08 06:53:27;;;;;;;;;3.75;0.75;;;;;9.16;76.34;99395.41;5101726;27;63043;-76
2021/12/08 06:56:01;;;;;;;;;3.00;0.00;;;;;9.24;76.34;99400.84;5100700;27;61820;-77
2021/12/08 06:58:29;;;;;;;;;0.75;0.75;;;;;9.23;76.39;99385.97;5102548;27;61760;-76
2021/12/08 07:01:36;;;;;;;;;1.25;0.75;;;;;9.21;76.72;99398.13;5099815;27;62522;-75
2021/12/08 07:04:27;;;;;;;;;3.25;2.75;;;;;9.20;76.09;99389.41;5098731;27;62654;-75
2021/12/08 07:07:00;;;;;;;;;3.75;1.50;;;;;9.21;75.74;99399.06;5101955;27;61838;-75
2021/12/08 07:09:49;;;;;;;;;2.00;0.00;;;;;9.18;76.17;99404.19;5100320;27;61964;-75
2021/12/08 07:12:23;;;;;;;;;0.25;0.25;;;;;9.16;76.67;99400.63;5101721;27;62114;-75
2021/12/08 07:14:54;;;;;;;;;0.00;0.00;;;;;9.18;76.46;99414.66;5101418;27;61990;-75
2021/12/08 07:17:23;;;;;;;;;4.50;0.00;;;;;9.19;76.59;99405.97;5101245;27;61891;-75
2021/12/08 07:20:03;;;;;;;;;1.00;1.00;;;;;9.06;76.17;99419.56;5100984;27;62835;-75
2021/12/08 07:22:33;;;;;;;;;1.25;0.25;;;;;9.17;76.45;99415.50;5101310;27;61955;-75
2021/12/08 07:25:01;;;;;;;;;2.00;0.00;;;;;9.13;76.50;99397.06;5100225;27;63585;-75
2021/12/08 07:27:31;;;;;;;;;1.25;1.00;;;;;9.15;76.22;99411.09;5102574;27;61910;-75
2021/12/08 07:30:01;;;;;;;;;4.00;0.00;;;;;9.11;76.98;99404.88;5101894;27;61917;-75
2021/12/08 07:32:33;;;;;;;;;1.00;0.00;;;;;9.12;76.16;99424.94;5101249;27;62126;-75
2021/12/08 07:35:03;;;;;;;;;3.75;2.25;;;;;9.16;76.96;99418.09;5099106;27;63907;-75
2021/12/08 07:37:34;;;;;;;;;3.25;0.50;;;;;9.14;76.68;99417.16;5100543;27;62236;-75
2021/12/08 07:40:10;;;;;;;;;1.25;1.00;;;;;9.12;76.61;99426.69;5097650;27;62224;-76
2021/12/08 07:42:41;;;;;;;;;3.00;1.00;;;;;9.16;77.12;99439.03;5099744;27;62039;-75
2021/12/08 07:45:12;;;;;;;;;2.00;1.00;;;;;9.13;77.14;99445.06;5098833;27;63967;-76
2021/12/08 07:47:39;;;;;;;;;0.00;0.00;;;;;9.14;76.92;99451.19;5101152;27;62299;-75
2021/12/08 07:50:30;;;;;;;;;3.75;1.75;;;;;9.16;76.64;99457.34;5100954;27;61960;-75
2021/12/08 07:52:57;;;;;;;;;0.75;0.00;;;;;9.19;76.88;99460.03;5097856;27;61773;-74
2021/12/08 07:55:28;;;;;;;;;6.75;1.00;;;;;9.26;76.60;99458.50;5099240;27;63903;-75
2021/12/08 07:57:54;;;;;;;;;2.00;1.00;;;;;9.27;76.38;99460.28;5099820;27;62300;-75
2021/12/08 08:00:29;;;;;;;;;1.00;1.00;;;;;9.31;76.27;99462.13;5103042;27;61819;-75
2021/12/08 08:02:55;;;;;;;;;0.25;0.25;;;;;9.30;76.14;99469.13;5104877;27;61777;-75
2021/12/08 08:05:27;;;;;;;;;1.75;1.00;;;;;9.33;76.27;99465.69;5103097;27;63699;-75
2021/12/08 08:07:56;;;;;;;;;2.00;0.50;;;;;9.34;76.24;99456.97;5104134;27;61674;-74
2021/12/08 08:10:22;;;;;;;;;1.50;0.50;;;;;9.21;76.28;99466.22;5104584;27;61958;-75
2021/12/08 08:12:51;;;;;;;;;3.50;1.75;;;;;9.33;76.77;99458.72;5103401;27;62165;-75
2021/12/08 08:15:22;;;;;;;;;2.75;2.00;;;;;9.40;76.54;99465.00;5104099;27;62047;-75
2021/12/08 08:17:52;;;;;;;;;1.00;1.00;;;;;9.39;76.52;99458.88;5104360;27;61720;-75
2021/12/08 08:20:24;;;;;;;;;2.00;0.50;;;;;9.43;76.30;99457.25;5104758;27;61985;-74
2021/12/08 08:22:51;;;;;;;;;1.50;1.00;;;;;9.41;76.55;99451.06;5104119;27;61836;-72
2021/12/08 08:25:21;;;;;;;;;0.00;0.00;;;;;9.46;75.88;99457.31;5102907;27;65164;-76
2021/12/08 08:27:47;;;;;;;;;4.00;1.50;;;;;9.47;76.48;99460.81;5104495;27;61837;-77
2021/12/08 08:30:19;;;;;;;;;4.00;2.00;;;;;9.53;77.11;99468.84;5103427;27;61761;-77
2021/12/08 08:32:50;;;;;;;;;6.00;0.75;;;;;9.51;75.53;99473.16;5102583;27;62000;-77
2021/12/08 08:35:25;;;;;;;;;4.00;4.00;;;;;9.55;76.07;99483.75;5102170;27;64129;-77
2021/12/08 08:37:51;;;;;;;;;1.00;1.00;;;;;9.53;76.00;99476.69;5101857;27;61832;-77
2021/12/08 08:40:26;;;;;;;;;3.25;1.00;;;;;9.51;75.97;99488.88;5101755;27;61842;-77
2021/12/08 08:42:54;;;;;;;;;2.00;1.00;;;;;9.59;76.03;99484.72;5103673;27;62212;-77
2021/12/08 08:45:44;;;;;;;;;4.00;0.75;;;;;9.65;75.29;99486.63;5102037;27;64802;-77
2021/12/08 08:48:18;;;;;;;;;3.25;1.00;;;;;9.71;75.23;99492.03;5102804;27;62290;-77
2021/12/08 08:50:49;;;;;;;;;2.00;1.00;;;;;9.72;74.84;99496.44;5103112;27;62434;-76
2021/12/08 08:53:18;;;;;;;;;1.00;1.00;;;;;9.76;75.42;99495.66;5104826;27;61967;-76
2021/12/08 08:55:48;;;;;;;;;5.75;0.75;;;;;9.81;75.37;99500.19;5104226;27;63070;-77
2021/12/08 08:58:15;;;;;;;;;1.00;1.00;;;;;9.82;74.70;99491.47;5103627;27;62212;-77
2021/12/08 09:00:54;;;;;;;;;1.00;0.75;;;;;9.88;74.57;99497.75;5104514;27;62111;-77
2021/12/08 09:03:24;;;;;;;;;1.75;1.50;;;;;9.89;74.57;99492.50;5103584;27;61739;-77
2021/12/08 09:05:55;;;;;;;;;1.00;1.00;;;;;9.92;74.57;99500.47;5103756;27;62034;-77
2021/12/08 09:08:24;;;;;;;;;5.75;1.00;;;;;10.01;74.26;99503.31;5103048;27;61972;-77
2021/12/08 09:11:15;;;;;;;;;1.25;1.25;;;;;10.09;74.86;99521.88;5102369;27;62225;-77
2021/12/08 09:14:00;;;;;;;;;3.25;2.00;;;;;10.16;74.63;99515.94;5102878;27;62059;-77
2021/12/08 09:16:35;;;;;;;;;0.50;0.50;;;;;10.20;74.60;99512.56;5103983;27;63338;-78
2021/12/08 09:19:10;;;;;;;;;4.75;1.75;;;;;10.25;74.39;99504.78;5102745;27;62206;-78
2021/12/08 09:21:43;;;;;;;;;0.75;0.75;;;;;10.26;73.68;99511.78;5103652;27;61770;-76
2021/12/08 09:24:20;;;;;;;;;1.00;1.00;;;;;10.24;73.41;99517.03;5102591;27;62111;-73
2021/12/08 09:26:51;;;;;;;;;2.75;2.00;;;;;10.23;73.51;99514.34;5102283;27;62014;-73
2021/12/08 09:29:25;;;;;;;;;3.00;1.00;;;;;10.27;73.23;99516.22;5103075;27;62110;-74
2021/12/08 09:32:04;;;;;;;;;2.00;1.00;;;;;10.25;72.95;99515.28;5104091;27;61967;-74
2021/12/08 09:34:39;;;;;;;;;3.50;1.00;;;;;10.33;73.73;99515.53;5103724;27;61822;-74
2021/12/08 09:37:13;;;;;;;;;4.00;2.25;;;;;10.44;73.45;99525.41;5102876;27;63388;-75
2021/12/08 09:39:52;;;;;;;;;5.00;1.75;;;;;10.64;72.82;99536.38;5103431;27;62439;-75
2021/12/08 09:42:26;;;;;;;;;5.00;3.00;;;;;10.71;72.06;99536.53;5101854;27;62295;-79
2021/12/08 09:45:07;;;;;;;;;1.00;1.00;;;;;10.77;72.36;99527.06;5103749;27;61785;-74
2021/12/08 09:47:33;;;;;;;;;6.75;5.00;;;;;10.76;72.01;99520.03;5103437;27;61928;-75
2021/12/08 09:50:02;;;;;;;;;3.00;2.00;;;;;10.74;71.80;99521.75;5103138;27;62133;-73
2021/12/08 09:52:28;;;;;;;;;4.00;1.75;;;;;10.74;72.04;99523.50;5103638;27;61855;-73
2021/12/08 09:54:56;;;;;;;;;1.00;0.00;;;;;10.72;71.47;99525.19;5104074;27;61795;-73
2021/12/08 09:57:23;;;;;;;;;1.75;1.75;;;;;10.82;72.14;99524.56;5102945;27;62590;-73
2021/12/08 09:59:49;;;;;;;;;3.00;1.75;;;;;10.94;71.42;99521.31;5089632;27;61904;-75
2021/12/08 10:02:31;;;;;;;;;3.50;2.25;;;;;10.99;71.54;99511.78;5081528;28;62059;-75
2021/12/08 10:05:14;;;;;;;;;1.50;0.50;;;;;11.08;70.79;99508.50;5090681;27;61857;-75
2021/12/08 10:07:42;;;;;;;;;2.00;2.00;;;;;11.14;70.56;99512.16;5090831;27;61947;-75
2021/12/08 10:10:11;;;;;;;;;1.00;1.00;;;;;11.23;70.41;99506.19;5093762;27;61934;-75
2021/12/08 10:12:37;;;;;;;;;4.50;1.00;;;;;11.27;70.41;99515.91;5091354;27;62000;-75
2021/12/08 10:15:07;;;;;;;;;5.25;0.50;;;;;11.28;70.19;99508.91;5084254;27;62081;-75
2021/12/08 10:17:33;;;;;;;;;1.00;1.00;;;;;11.33;69.55;99509.88;5080343;28;64087;-76
2021/12/08 10:20:33;;;;;;;;;4.25;2.25;;;;;11.38;69.70;99510.88;5081488;28;61818;-75
2021/12/08 10:23:18;;;;;;;;;1.00;1.00;;;;;11.55;69.42;99508.59;5082010;27;61711;-75
2021/12/08 10:25:49;;;;;;;;;4.50;1.00;;;;;11.64;69.13;99501.75;5088028;27;61942;-75
2021/12/08 10:28:17;;;;;;;;;1.25;1.00;;;;;11.66;68.95;99513.19;5090451;27;63333;-75
2021/12/08 10:30:46;;;;;;;;;1.25;1.00;;;;;11.72;67.62;99514.16;5097145;27;61992;-75
2021/12/08 10:39:13;;;;;;;;;3.00;0.00;;;;;11.60;67.11;99507.81;5091733;27;61906;-75
2021/12/08 10:41:46;;;;;;;;;2.75;0.50;;;;;11.69;67.33;99503.59;5094101;27;61817;-76
2021/12/08 10:44:11;;;;;;;;;0.00;0.00;;;;;11.66;67.51;99500.06;5087670;27;62071;-79
2021/12/08 10:46:39;;;;;;;;;3.00;2.00;;;;;11.57;67.68;99502.50;5080612;28;61977;-79
2021/12/08 10:54:46;;;;;;;;;3.00;1.00;;;;;11.30;67.32;99502.84;5077893;28;62148;-72
2021/12/08 10:57:33;;;;;;;;;3.00;1.00;;;;;11.20;67.46;99503.50;5079816;28;63090;-72
2021/12/08 11:00:07;;;;;;;;;0.50;0.25;;;;;11.32;67.95;99503.75;5073644;28;63985;-73
2021/12/08 11:02:39;;;;;;;;;3.25;1.00;;;;;11.46;67.88;99504.00;5077498;28;62646;-71
2021/12/08 11:05:26;;;;;;;;;1.00;1.00;;;;;11.64;67.85;99501.75;5078552;28;61899;-72
2021/12/08 11:08:09;;;;;;;;;1.00;1.00;;;;;11.88;67.96;99497.84;5081614;27;62086;-72
2021/12/08 11:10:45;;;;;;;;;3.00;1.75;;;;;12.06;67.22;99513.06;5060265;28;64211;-74
2021/12/08 11:13:12;;;;;;;;;0.00;0.00;;;;;12.14;67.17;99511.47;5079100;28;62047;-72
2021/12/08 11:15:39;;;;;;;;;1.00;0.75;;;;;12.22;65.96;99511.59;5075714;28;62168;-73
2021/12/08 11:18:21;;;;;;;;;1.25;0.25;;;;;12.29;66.81;99508.22;5079860;28;62189;-76
2021/12/08 11:21:00;;;;;;;;;1.00;1.00;;;;;12.40;65.97;99511.03;5078592;28;61886;-76
2021/12/08 11:23:41;;;;;;;;;5.50;2.00;;;;;12.43;64.90;99506.69;5079333;28;62178;-76
2021/12/08 11:26:17;;;;;;;;;3.00;1.00;;;;;12.57;64.63;99501.63;5079281;28;61885;-75
2021/12/08 11:28:59;;;;;;;;;2.00;1.25;;;;;12.61;63.44;99511.34;5053903;28;62355;-75
2021/12/08 11:31:30;;;;;;;;;1.00;1.00;;;;;12.64;62.83;99497.38;5079758;28;64067;-77
2021/12/08 11:34:00;;;;;;;;;1.00;0.00;;;;;12.76;62.52;99502.81;5084561;28;61786;-77
2021/12/08 11:36:28;;;;;;;;;1.50;1.00;;;;;12.87;62.26;99495.06;5085651;27;62103;-76
2021/12/08 11:38:54;;;;;;;;;0.00;0.00;;;;;13.05;63.71;99495.31;5084994;28;61784;-73
2021/12/08 11:41:36;;;;;;;;;0.00;0.00;;;;;13.19;63.18;99492.88;5090037;27;64493;-74
2021/12/08 11:44:24;;;;;;;;;0.00;0.00;;;;;13.39;62.86;99492.25;5103993;27;62006;-74
2021/12/08 11:46:55;;;;;;;;;1.00;1.00;;;;;13.42;61.79;99497.59;5103411;27;61848;-74
2021/12/08 11:49:22;;;;;;;;;1.00;1.00;;;;;13.51;62.12;99495.03;5104738;27;62085;-74
2021/12/08 11:52:20;;;;;;;;;5.50;2.00;;;;;13.66;61.73;99489.94;5104826;27;62071;-74
2021/12/08 11:54:48;;;;;;;;;1.25;1.00;;;;;13.85;60.91;99484.88;5095662;27;61852;-74
2021/12/08 11:57:42;;;;;;;;;0.75;0.00;;;;;13.97;60.99;99490.28;5104250;27;62266;-78
2021/12/08 12:00:14;;;;;;;;;1.00;0.00;;;;;14.02;58.91;99507.03;5096490;27;61979;-74
2021/12/08 12:02:45;;;;;;;;;0.00;0.00;;;;;14.21;59.19;99501.94;5107861;27;63753;-74
2021/12/08 12:05:14;;;;;;;;;0.00;0.00;;;;;14.24;58.43;99500.19;5084754;27;62103;-77
2021/12/08 12:07:40;;;;;;;;;3.00;0.00;;;;;14.18;58.16;99496.59;5093898;27;62309;-76
2021/12/08 12:10:12;;;;;;;;;0.75;0.00;;;;;14.32;59.09;99497.63;5103655;27;62090;-75
2021/12/08 12:12:39;;;;;;;;;1.00;1.00;;;;;14.37;59.23;99513.50;5095754;27;63125;-76
2021/12/08 12:15:06;;;;;;;;;1.00;0.00;;;;;14.40;58.77;99505.63;5095214;27;62139;-76
2021/12/08 12:17:32;;;;;;;;;3.00;1.50;;;;;14.47;58.61;99500.38;5105366;27;62123;-77
2021/12/08 12:20:20;;;;;;;;;1.75;0.50;;;;;14.59;59.30;99510.19;5105043;27;62021;-77
2021/12/08 12:23:23;;;;;;;;;4.00;1.00;;;;;14.58;57.31;99513.69;5099701;27;64060;-77
2021/12/08 12:26:10;;;;;;;;;3.50;1.00;;;;;14.54;57.48;99525.06;5087221;27;61983;-79
2021/12/08 12:28:38;;;;;;;;;1.50;0.50;;;;;14.72;57.55;99527.03;5083713;27;62152;-79
2021/12/08 12:31:19;;;;;;;;;0.25;0.25;;;;;14.96;57.31;99526.28;5085860;27;61923;-75
2021/12/08 12:33:47;;;;;;;;;1.25;1.25;;;;;15.15;57.91;99524.66;5104199;27;62568;-76
2021/12/08 12:36:27;;;;;;;;;0.50;0.25;;;;;15.36;58.17;99533.53;5105087;27;61961;-74
2021/12/08 12:39:09;;;;;;;;;0.75;0.75;;;;;15.32;55.18;99530.91;5102294;27;61753;-75
2021/12/08 12:41:35;;;;;;;;;0.25;0.00;;;;;15.24;54.98;99523.81;5104666;27;61776;-75
2021/12/08 12:44:26;;;;;;;;;0.00;0.00;;;;;16.06;54.22;99532.94;5103042;27;61840;-75
2021/12/08 12:47:09;;;;;;;;;0.00;0.00;;;;;16.26;52.74;99531.22;5089167;27;62180;-74
2021/12/08 12:49:37;;;;;;;;;0.50;0.50;;;;;16.25;53.19;99528.56;5084142;27;61976;-75
2021/12/08 12:52:14;;;;;;;;;0.50;0.50;;;;;15.85;51.87;99534.66;5087775;27;61791;-75